Ana Sayfa
METAR-TAF:

METAR-TAF

Havaalanları :

Peachtree City Airport (Falcon Field)

Atlanta, Georgia, Amerika Birleşik Devletleri

Enlem: 33-21-19N, Boylam: 084-34-01W, yükseklik: 246 m

Güncel hava durumu gözlemi

Rapor saat 16:53 UTC de 1 saat ve 6 dakika önce yapıldı.
Rüzgar kuzey/kuzeybatıdan 6 kt
Sıcaklık 34°C
Nem 28%
Basınç 1016 hPa
Görüş mesafesi: 16.1 km
Açık gökyüzü

METAR: KFFC 251653Z AUTO 33006KT 10SM CLR 34/13 A3000 RMK AO2 SLP149 T03440133

Saat: 13:59 (17:59 UTC)


TAF: eksik

4.000'den fazla havaalanı için hava durumu gözlemleri ve tahminleri (METAR ve TAF raporları).

Kullanılabilir istasyonlar harita üzerinde sarı ve kırmızı noktalarla gösterilir.

İstasyonun adını görmek için fareyi noktanın üzerinde gezdirin.

Sonrasında hava gözlem ve tahminlerini görmek için tıklayın.

Haritayı değiştirmek için: yaklaştırmak için siyah artı işaretli yeşil düğmeye ve uzaklaştırmak için de eksi işaretli düğmeye hızla tıklayın; bitişik haritalar için yeşil okları kullanın.


METAR-TAF: